Terminal Aerodrome Forecast
Issued by NWS La Crosse, WI

Home | Current Version | Previous Version | Text Only | Print | Product List | Glossary On
Versions: 1 2 3 4 5 6 7 8 9 10 11 12 13 14 15
000
FTUS43 KARX 210818 AAA
TAFLSE
TAF AMD
KLSE 210818Z 2108/2206 18015G22KT P6SM FEW045 BKN120
     FM211300 18015G22KT P6SM SCT045 BKN100
     FM211700 18015G22KT P6SM BKN045
     FM220300 17013KT P6SM SHRA VCTS BKN030CB=

USA.gov is the U.S. government's official web portal to all federal, state and local government web resources and services.